Time;durP1;ratioP1;P1;durP2;ratioP2;P2;SDS_P1;SDS_P2;PMS_P1;PMS_P2;Temp;Humidity;BMP_temperature;BMP_pressure;BME280_temperature;BME280_humidity;BME280_pressure;Samples;Min_cycle;Max_cycle;Signal;HPM_P1;HPM_P2
2021/08/03 00:02:01;;;;;;;6.35;3.92;;;;;;;;;;5082218;28;20053;-83
2021/08/03 00:04:35;;;;;;;6.20;3.88;;;;;;;;;;5080685;28;20473;-84
2021/08/03 00:07:04;;;;;;;6.10;3.65;;;;;;;;;;5073064;28;20072;-84
2021/08/03 00:09:33;;;;;;;5.78;3.28;;;;;;;;;;5077816;28;20584;-83
2021/08/03 00:12:02;;;;;;;7.35;3.30;;;;;;;;;;5078776;28;20048;-83
2021/08/03 00:14:30;;;;;;;5.53;3.60;;;;;;;;;;5075203;28;20053;-84
2021/08/03 00:16:59;;;;;;;5.90;3.45;;;;;;;;;;5074947;28;20513;-83
2021/08/03 00:19:27;;;;;;;6.68;3.80;;;;;;;;;;5077101;28;20060;-84
2021/08/03 00:21:54;;;;;;;6.22;4.03;;;;;;;;;;5078968;28;20424;-84
2021/08/03 00:24:29;;;;;;;8.57;4.18;;;;;;;;;;5074626;28;20436;-84
2021/08/03 00:26:57;;;;;;;6.78;3.65;;;;;;;;;;5074583;28;20045;-83
2021/08/03 00:29:26;;;;;;;6.60;4.03;;;;;;;;;;5078967;28;20052;-83
2021/08/03 00:31:54;;;;;;;5.95;3.00;;;;;;;;;;5081434;28;20055;-85
2021/08/03 00:34:21;;;;;;;4.88;2.75;;;;;;;;;;5074107;28;20051;-83
2021/08/03 00:36:48;;;;;;;6.10;3.40;;;;;;;;;;5076633;28;20392;-83
2021/08/03 00:39:15;;;;;;;5.32;3.13;;;;;;;;;;5076966;28;20412;-83
2021/08/03 00:41:46;;;;;;;4.82;2.95;;;;;;;;;;5076959;28;20047;-83
2021/08/03 00:44:14;;;;;;;6.07;3.45;;;;;;;;;;5076927;28;20056;-82
2021/08/03 00:46:44;;;;;;;5.85;3.67;;;;;;;;;;5076933;28;20045;-83
2021/08/03 00:49:11;;;;;;;6.47;4.18;;;;;;;;;;5076926;28;20493;-83
2021/08/03 00:51:38;;;;;;;7.00;4.32;;;;;;;;;;5077368;28;20044;-83
2021/08/03 00:54:05;;;;;;;7.15;4.40;;;;;;;;;;5086676;28;20048;-83
2021/08/03 00:56:34;;;;;;;7.20;4.80;;;;;;;;;;5096456;28;20056;-82
2021/08/03 00:59:01;;;;;;;9.57;5.38;;;;;;;;;;5085894;28;20106;-83
2021/08/03 01:01:27;;;;;;;8.80;5.65;;;;;;;;;;5079271;28;20045;-83
2021/08/03 01:03:56;;;;;;;7.95;4.78;;;;;;;;;;5078509;28;20040;-83
2021/08/03 01:06:30;;;;;;;8.18;5.07;;;;;;;;;;5078785;28;20052;-83
2021/08/03 01:09:03;;;;;;;7.20;4.78;;;;;;;;;;5094705;28;20047;-82
2021/08/03 01:11:39;;;;;;;7.55;4.72;;;;;;;;;;5100825;28;20028;-81
2021/08/03 01:14:11;;;;;;;6.78;4.20;;;;;;;;;;5100413;28;20037;-82
2021/08/03 01:16:45;;;;;;;4.90;2.65;;;;;;;;;;5100126;28;20033;-82
2021/08/03 01:19:22;;;;;;;4.13;2.60;;;;;;;;;;5100034;28;20092;-83
2021/08/03 01:21:51;;;;;;;6.15;2.53;;;;;;;;;;5082530;28;20044;-83
2021/08/03 01:24:45;;;;;;;4.90;3.03;;;;;;;;;;5074471;28;20040;-83
2021/08/03 01:27:26;;;;;;;4.40;2.67;;;;;;;;;;5074922;28;20080;-83
2021/08/03 01:29:57;;;;;;;5.82;3.45;;;;;;;;;;5075311;28;20044;-82
2021/08/03 01:32:25;;;;;;;;;;;;;;;;;;5075341;28;20049;-84
2021/08/03 01:34:53;;;;;;;5.72;3.67;;;;;;;;;;5075152;28;20380;-84
2021/08/03 01:37:22;;;;;;;7.00;3.80;;;;;;;;;;5076047;28;20048;-84
2021/08/03 01:39:53;;;;;;;6.45;3.90;;;;;;;;;;5075862;28;20049;-84
2021/08/03 01:42:22;;;;;;;8.25;4.70;;;;;;;;;;5075572;28;20052;-84
2021/08/03 01:44:50;;;;;;;9.00;6.30;;;;;;;;;;5075089;28;20047;-83
2021/08/03 01:47:25;;;;;;;6.75;4.53;;;;;;;;;;5076083;28;20048;-83
2021/08/03 01:50:02;;;;;;;7.28;4.22;;;;;;;;;;5077281;28;20416;-83
2021/08/03 01:52:32;;;;;;;7.15;4.35;;;;;;;;;;5076138;28;20048;-83
2021/08/03 01:55:00;;;;;;;7.82;5.10;;;;;;;;;;5076130;28;20052;-84
2021/08/03 01:57:29;;;;;;;8.43;5.00;;;;;;;;;;5090615;22;20052;-82
2021/08/03 01:59:56;;;;;;;7.40;4.95;;;;;;;;;;4996173;28;20046;-81
2021/08/03 02:02:25;;;;;;;7.45;4.45;;;;;;;;;;4995660;28;20459;-81
2021/08/03 02:04:52;;;;;;;8.30;5.45;;;;;;;;;;4995247;28;20117;-81
2021/08/03 02:07:21;;;;;;;8.63;4.60;;;;;;;;;;4995375;28;20046;-81
2021/08/03 02:09:49;;;;;;;8.30;4.93;;;;;;;;;;4995314;28;20510;-80
2021/08/03 02:12:16;;;;;;;8.77;5.78;;;;;;;;;;4995937;28;20058;-81
2021/08/03 02:14:46;;;;;;;7.28;4.88;;;;;;;;;;4995357;28;20050;-80
2021/08/03 02:17:17;;;;;;;9.68;5.65;;;;;;;;;;4995619;28;20066;-79
2021/08/03 02:19:45;;;;;;;8.70;5.32;;;;;;;;;;4995641;28;20392;-81
2021/08/03 02:22:13;;;;;;;8.25;5.22;;;;;;;;;;4995507;28;20050;-80
2021/08/03 02:24:39;;;;;;;8.68;5.00;;;;;;;;;;4995260;28;20073;-81
2021/08/03 02:27:07;;;;;;;6.63;4.70;;;;;;;;;;4995644;28;20459;-81
2021/08/03 02:29:36;;;;;;;6.53;4.07;;;;;;;;;;4995199;28;20046;-80
2021/08/03 02:32:07;;;;;;;7.90;4.50;;;;;;;;;;4995694;28;20051;-80
2021/08/03 02:34:39;;;;;;;6.97;4.00;;;;;;;;;;4995566;28;20507;-83
2021/08/03 02:37:14;;;;;;;6.47;4.28;;;;;;;;;;4995996;28;20062;-79
2021/08/03 02:39:42;;;;;;;7.18;4.40;;;;;;;;;;4996114;28;20078;-79
2021/08/03 02:42:10;;;;;;;7.60;4.07;;;;;;;;;;4996062;28;20046;-80
2021/08/03 02:44:40;;;;;;;6.68;3.90;;;;;;;;;;4995683;28;20054;-83
2021/08/03 02:47:18;;;;;;;5.55;3.63;;;;;;;;;;4996158;28;20058;-80
2021/08/03 02:49:48;;;;;;;5.90;3.15;;;;;;;;;;4996762;28;20495;-80
2021/08/03 02:52:18;;;;;;;4.78;2.85;;;;;;;;;;4995592;28;20046;-78
2021/08/03 02:54:49;;;;;;;5.45;2.70;;;;;;;;;;4995886;28;20050;-80
2021/08/03 02:57:19;;;;;;;4.55;2.80;;;;;;;;;;4996277;28;20057;-79
2021/08/03 02:59:49;;;;;;;4.40;2.53;;;;;;;;;;4995861;28;20046;-80
2021/08/03 03:02:17;;;;;;;3.72;2.53;;;;;;;;;;4996452;28;20054;-80
2021/08/03 03:04:50;;;;;;;4.75;2.78;;;;;;;;;;4995883;28;20488;-80
2021/08/03 03:07:24;;;;;;;5.38;3.00;;;;;;;;;;4996088;28;20054;-80
2021/08/03 03:09:54;;;;;;;5.43;2.90;;;;;;;;;;4995941;28;20049;-80
2021/08/03 03:12:23;;;;;;;4.63;3.10;;;;;;;;;;4995733;28;20046;-79
2021/08/03 03:14:52;;;;;;;6.43;3.17;;;;;;;;;;4998850;28;20058;-78
2021/08/03 03:17:22;;;;;;;4.53;2.70;;;;;;;;;;5001383;28;20042;-81
2021/08/03 03:19:50;;;;;;;5.35;3.00;;;;;;;;;;5018754;28;20042;-80
2021/08/03 03:22:19;;;;;;;5.05;3.60;;;;;;;;;;5018427;28;20026;-80
2021/08/03 03:24:47;;;;;;;5.28;3.10;;;;;;;;;;5018263;28;20058;-79
2021/08/03 03:27:16;;;;;;;4.45;3.00;;;;;;;;;;5018717;28;20038;-81
2021/08/03 03:29:44;;;;;;;5.65;3.50;;;;;;;;;;5018607;28;20078;-80
2021/08/03 03:32:11;;;;;;;6.18;3.25;;;;;;;;;;5018712;28;20064;-82
2021/08/03 03:34:40;;;;;;;6.70;3.67;;;;;;;;;;5017225;28;20058;-83
2021/08/03 03:37:07;;;;;;;7.85;4.05;;;;;;;;;;5017468;28;20042;-81
2021/08/03 03:39:38;;;;;;;6.43;4.03;;;;;;;;;;5017949;28;20051;-81
2021/08/03 03:42:07;;;;;;;8.07;4.55;;;;;;;;;;5018291;28;20065;-81
2021/08/03 03:44:34;;;;;;;8.43;5.63;;;;;;;;;;5017552;28;20058;-81
2021/08/03 03:47:06;;;;;;;9.80;5.82;;;;;;;;;;5017343;28;20051;-81
2021/08/03 03:49:38;;;;;;;8.07;4.85;;;;;;;;;;5018015;28;20066;-81
2021/08/03 03:52:06;;;;;;;8.15;4.50;;;;;;;;;;5015394;28;20050;-81
2021/08/03 03:54:39;;;;;;;6.85;4.40;;;;;;;;;;5017940;28;20038;-82
2021/08/03 03:57:10;;;;;;;5.93;4.15;;;;;;;;;;5017990;28;20070;-81
2021/08/03 03:59:37;;;;;;;6.47;4.68;;;;;;;;;;5017702;28;20039;-81
2021/08/03 04:02:08;;;;;;;5.50;3.38;;;;;;;;;;5030045;28;20041;-81
2021/08/03 04:04:36;;;;;;;;;;;;;;;;;;5037826;28;20034;-82
2021/08/03 04:07:03;;;;;;;6.30;3.75;;;;;;;;;;5037721;28;19918;-81
2021/08/03 04:09:30;;;;;;;6.38;3.90;;;;;;;;;;5037774;28;20026;-81
2021/08/03 04:11:58;;;;;;;6.07;3.90;;;;;;;;;;5041079;28;20038;-81
2021/08/03 04:14:27;;;;;;;5.32;3.67;;;;;;;;;;5041307;28;20041;-81
2021/08/03 04:16:56;;;;;;;5.80;3.33;;;;;;;;;;5040554;28;20065;-83
2021/08/03 04:19:22;;;;;;;8.07;3.85;;;;;;;;;;5041048;28;20072;-81
2021/08/03 04:21:50;;;;;;;6.15;3.17;;;;;;;;;;5040874;28;20057;-82
2021/08/03 04:24:18;;;;;;;5.65;3.75;;;;;;;;;;5040846;28;20040;-83
2021/08/03 04:26:46;;;;;;;6.05;3.63;;;;;;;;;;5039930;28;20068;-82
2021/08/03 04:29:14;;;;;;;6.63;3.80;;;;;;;;;;5039226;28;20037;-81
2021/08/03 04:31:41;;;;;;;6.20;3.35;;;;;;;;;;5026322;28;20046;-80
2021/08/03 04:34:08;;;;;;;8.90;3.80;;;;;;;;;;5019426;28;20495;-80
2021/08/03 04:36:35;;;;;;;5.82;3.50;;;;;;;;;;5018902;28;20049;-80
2021/08/03 04:39:02;;;;;;;5.10;3.78;;;;;;;;;;5019069;28;20042;-81
2021/08/03 04:41:29;;;;;;;6.20;3.88;;;;;;;;;;5018849;28;20054;-79
2021/08/03 04:43:56;;;;;;;6.07;3.58;;;;;;;;;;5018577;28;20049;-81
2021/08/03 04:46:24;;;;;;;5.30;3.40;;;;;;;;;;5018773;28;20076;-81
2021/08/03 04:48:51;;;;;;;6.82;3.45;;;;;;;;;;5018705;28;20491;-81
2021/08/03 04:51:21;;;;;;;5.78;3.78;;;;;;;;;;5020052;28;20069;-82
2021/08/03 04:53:48;;;;;;;5.97;3.60;;;;;;;;;;5021814;28;20048;-81
2021/08/03 04:56:14;;;;;;;8.02;3.88;;;;;;;;;;5018599;28;20291;-82
2021/08/03 04:58:41;;;;;;;6.00;3.40;;;;;;;;;;5019128;28;20112;-81
2021/08/03 05:01:08;;;;;;;7.32;3.67;;;;;;;;;;5020933;28;20074;-81
2021/08/03 05:03:36;;;;;;;7.07;4.28;;;;;;;;;;5018605;28;20407;-81
2021/08/03 05:06:03;;;;;;;6.78;4.03;;;;;;;;;;5017695;28;20495;-81
2021/08/03 05:08:30;;;;;;;5.82;3.50;;;;;;;;;;5019112;28;20058;-81
2021/08/03 05:10:57;;;;;;;6.70;3.30;;;;;;;;;;5017370;28;20068;-79
2021/08/03 05:13:24;;;;;;;5.97;3.65;;;;;;;;;;5017044;28;20050;-79
2021/08/03 05:15:51;;;;;;;6.57;3.60;;;;;;;;;;5016619;28;20045;-80
2021/08/03 05:18:17;;;;;;;7.60;3.50;;;;;;;;;;5017672;28;20396;-80
2021/08/03 05:20:46;;;;;;;6.45;3.63;;;;;;;;;;5018458;28;20451;-80
2021/08/03 05:23:13;;;;;;;5.80;3.60;;;;;;;;;;5021889;28;20108;-81
2021/08/03 05:25:40;;;;;;;5.68;3.35;;;;;;;;;;5019621;28;20092;-81
2021/08/03 05:28:08;;;;;;;6.45;3.30;;;;;;;;;;5020326;28;20057;-81
2021/08/03 05:30:35;;;;;;;6.60;3.63;;;;;;;;;;5018612;28;20125;-79
2021/08/03 05:33:01;;;;;;;7.50;3.25;;;;;;;;;;5018192;28;20041;-79
2021/08/03 05:35:28;;;;;;;7.60;3.95;;;;;;;;;;5019070;28;20053;-80
2021/08/03 05:37:56;;;;;;;5.65;3.55;;;;;;;;;;5015976;28;20116;-79
2021/08/03 05:40:23;;;;;;;6.03;3.70;;;;;;;;;;5017157;28;20060;-79
2021/08/03 05:42:50;;;;;;;6.53;3.45;;;;;;;;;;5016968;28;20050;-79
2021/08/03 05:45:17;;;;;;;8.30;3.63;;;;;;;;;;5016322;28;20046;-79
2021/08/03 05:47:43;;;;;;;6.55;3.92;;;;;;;;;;5021819;28;20050;-80
2021/08/03 05:50:11;;;;;;;6.35;3.28;;;;;;;;;;5016991;28;20096;-79
2021/08/03 05:52:38;;;;;;;6.75;3.83;;;;;;;;;;5018429;28;20454;-80
2021/08/03 05:55:07;;;;;;;7.53;3.90;;;;;;;;;;5015347;28;20050;-81
2021/08/03 05:57:34;;;;;;;7.07;3.30;;;;;;;;;;5015898;28;20061;-80
2021/08/03 06:00:00;;;;;;;7.47;3.88;;;;;;;;;;5015426;28;20053;-81
2021/08/03 06:02:27;;;;;;;6.18;3.97;;;;;;;;;;5016197;28;20046;-80
2021/08/03 06:04:55;;;;;;;7.53;3.90;;;;;;;;;;5015184;28;20470;-81
2021/08/03 06:07:25;;;;;;;6.13;3.65;;;;;;;;;;5017413;28;20052;-82
2021/08/03 06:09:56;;;;;;;5.30;3.63;;;;;;;;;;5019695;28;20050;-80
2021/08/03 06:12:27;;;;;;;5.30;3.65;;;;;;;;;;5021312;28;20404;-80
2021/08/03 06:14:56;;;;;;;5.78;3.63;;;;;;;;;;5021524;28;20078;-81
2021/08/03 06:17:37;;;;;;;5.63;3.50;;;;;;;;;;5022116;28;20108;-82
2021/08/03 06:20:06;;;;;;;6.65;3.97;;;;;;;;;;5016925;28;20046;-81
2021/08/03 06:22:35;;;;;;;6.57;3.58;;;;;;;;;;5016811;28;20577;-79
2021/08/03 06:25:03;;;;;;;9.18;3.65;;;;;;;;;;5015647;28;20123;-82
2021/08/03 06:27:32;;;;;;;6.88;3.90;;;;;;;;;;5016306;28;20050;-82
2021/08/03 06:30:02;;;;;;;7.22;3.90;;;;;;;;;;5020368;28;20107;-82
2021/08/03 06:32:29;;;;;;;6.13;3.72;;;;;;;;;;5021350;28;20046;-81
2021/08/03 06:34:57;;;;;;;5.95;3.65;;;;;;;;;;5020955;28;20053;-82
2021/08/03 06:37:24;;;;;;;7.35;3.83;;;;;;;;;;5022435;28;20116;-82
2021/08/03 06:39:52;;;;;;;5.95;3.92;;;;;;;;;;5022466;28;20057;-81
2021/08/03 06:42:26;;;;;;;8.20;3.95;;;;;;;;;;5022072;28;20407;-81
2021/08/03 06:45:02;;;;;;;7.72;4.55;;;;;;;;;;5021390;28;20053;-81
2021/08/03 06:47:47;;;;;;;7.53;4.28;;;;;;;;;;5020955;28;20050;-81
2021/08/03 06:50:15;;;;;;;7.97;4.50;;;;;;;;;;5022015;28;20157;-81
2021/08/03 06:52:42;;;;;;;7.72;4.97;;;;;;;;;;5020601;28;20081;-81
2021/08/03 06:55:09;;;;;;;6.43;4.30;;;;;;;;;;5020439;28;20092;-79
2021/08/03 06:57:36;;;;;;;6.35;3.63;;;;;;;;;;5014820;28;20054;-81
2021/08/03 07:00:09;;;;;;;7.13;3.97;;;;;;;;;;5009632;28;20045;-80
2021/08/03 07:02:41;;;;;;;7.00;3.88;;;;;;;;;;5013411;28;20140;-81
2021/08/03 07:05:10;;;;;;;7.30;4.22;;;;;;;;;;5012098;28;20054;-80
2021/08/03 07:07:37;;;;;;;8.07;4.03;;;;;;;;;;5013148;28;20496;-80
2021/08/03 07:10:07;;;;;;;12.38;4.10;;;;;;;;;;5015236;28;20664;-81
2021/08/03 07:12:35;;;;;;;6.45;3.83;;;;;;;;;;5013869;28;20128;-80
2021/08/03 07:15:02;;;;;;;7.55;4.47;;;;;;;;;;5012091;28;20100;-80
2021/08/03 07:17:31;;;;;;;6.30;3.90;;;;;;;;;;5012676;28;20042;-81
2021/08/03 07:19:59;;;;;;;5.90;4.00;;;;;;;;;;5014078;28;20080;-80
2021/08/03 07:22:26;;;;;;;6.90;4.07;;;;;;;;;;5013271;28;20081;-81
2021/08/03 07:24:54;;;;;;;6.38;3.65;;;;;;;;;;5013048;28;20050;-79
2021/08/03 07:27:21;;;;;;;5.88;3.60;;;;;;;;;;5012570;28;20054;-81
2021/08/03 07:29:48;;;;;;;6.18;3.70;;;;;;;;;;5012439;28;20058;-81
2021/08/03 07:32:16;;;;;;;7.25;3.83;;;;;;;;;;5012675;28;20046;-81
2021/08/03 07:34:44;;;;;;;4.53;2.95;;;;;;;;;;5011698;28;20053;-81
2021/08/03 07:37:12;;;;;;;5.07;2.88;;;;;;;;;;5012774;28;20108;-81
2021/08/03 07:39:39;;;;;;;5.32;2.92;;;;;;;;;;5013330;28;20057;-82
2021/08/03 07:42:08;;;;;;;6.03;2.78;;;;;;;;;;5012849;28;20057;-82
2021/08/03 07:50:01;;;;;;;4.47;2.67;;;;;;;;;;5015889;28;20061;-82
2021/08/03 07:52:27;;;;;;;5.25;3.10;;;;;;;;;;5017330;28;20046;-82
2021/08/03 07:54:55;;;;;;;4.95;2.78;;;;;;;;;;5018266;28;20054;-81
2021/08/03 07:57:23;;;;;;;5.78;3.15;;;;;;;;;;5017979;28;20128;-84
2021/08/03 07:59:51;;;;;;;5.88;3.28;;;;;;;;;;5020189;28;20056;-82
2021/08/03 08:02:17;;;;;;;4.60;2.80;;;;;;;;;;5052384;22;20045;-84
2021/08/03 08:04:44;;;;;;;6.10;2.90;;;;;;;;;;5055998;28;20049;-84
2021/08/03 08:07:12;;;;;;;5.22;2.75;;;;;;;;;;5063662;28;20067;-84
2021/08/03 08:09:39;;;;;;;4.43;2.72;;;;;;;;;;5058363;28;20098;-84
2021/08/03 08:12:06;;;;;;;5.63;2.83;;;;;;;;;;5056915;28;20049;-84
2021/08/03 08:14:34;;;;;;;3.58;2.20;;;;;;;;;;5056748;28;20056;-79
2021/08/03 08:17:01;;;;;;;5.25;2.20;;;;;;;;;;5060568;28;20049;-80
2021/08/03 08:19:28;;;;;;;4.40;2.20;;;;;;;;;;5062215;28;20665;-81
2021/08/03 08:21:57;;;;;;;4.13;2.67;;;;;;;;;;5059875;28;20106;-83
2021/08/03 08:24:26;;;;;;;5.18;3.00;;;;;;;;;;5059750;28;20053;-86
2021/08/03 08:26:52;;;;;;;5.95;2.80;;;;;;;;;;5063918;28;20137;-85
2021/08/03 08:29:20;;;;;;;6.03;2.78;;;;;;;;;;5065401;28;20052;-83
2021/08/03 08:31:47;;;;;;;4.95;2.40;;;;;;;;;;5065494;28;20045;-83
2021/08/03 08:34:14;;;;;;;5.38;2.47;;;;;;;;;;5066874;28;20599;-83
2021/08/03 08:36:41;;;;;;;4.45;2.50;;;;;;;;;;5063779;28;20052;-84
2021/08/03 08:39:08;;;;;;;4.43;2.38;;;;;;;;;;5059301;28;20049;-84
2021/08/03 08:41:39;;;;;;;4.47;2.88;;;;;;;;;;5057754;28;20056;-83
2021/08/03 08:44:06;;;;;;;;;;;;;;;;;;5057500;28;20056;-84
2021/08/03 08:46:34;;;;;;;4.35;2.25;;;;;;;;;;5058360;28;20388;-84
2021/08/03 08:49:01;;;;;;;6.05;2.85;;;;;;;;;;5061866;28;20045;-84
2021/08/03 08:51:29;;;;;;;5.35;3.10;;;;;;;;;;5063838;28;20045;-83
2021/08/03 08:53:56;;;;;;;6.80;2.80;;;;;;;;;;5066032;28;20079;-83
2021/08/03 08:56:23;;;;;;;5.93;3.10;;;;;;;;;;5065315;28;20061;-84
2021/08/03 08:58:51;;;;;;;7.38;2.83;;;;;;;;;;5064856;28;20060;-84
2021/08/03 09:01:18;;;;;;;6.43;2.70;;;;;;;;;;5057532;28;20050;-84
2021/08/03 09:03:45;;;;;;;5.38;2.97;;;;;;;;;;5044833;28;20055;-84
2021/08/03 09:06:13;;;;;;;4.70;2.70;;;;;;;;;;5044322;28;20140;-84
2021/08/03 09:08:41;;;;;;;4.80;2.63;;;;;;;;;;5044604;28;20136;-84
2021/08/03 09:11:09;;;;;;;11.93;2.40;;;;;;;;;;5044402;28;20053;-84
2021/08/03 09:13:52;;;;;;;4.32;2.28;;;;;;;;;;5079287;28;20041;-85
2021/08/03 09:16:19;;;;;;;5.22;2.70;;;;;;;;;;5087762;28;20039;-84
2021/08/03 09:18:46;;;;;;;7.68;5.32;;;;;;;;;;5094624;28;20032;-85
2021/08/03 09:21:23;;;;;;;5.15;2.63;;;;;;;;;;5089946;28;20048;-85
2021/08/03 09:23:53;;;;;;;5.00;2.80;;;;;;;;;;5097425;28;20094;-86
2021/08/03 09:26:21;;;;;;;6.70;2.92;;;;;;;;;;5094070;28;20048;-85
2021/08/03 09:29:03;;;;;;;6.90;2.83;;;;;;;;;;5083641;28;20059;-85
2021/08/03 09:31:31;;;;;;;5.60;2.67;;;;;;;;;;5082719;28;20044;-86
2021/08/03 09:33:58;;;;;;;5.68;2.45;;;;;;;;;;5082612;28;20064;-86
2021/08/03 09:36:48;;;;;;;6.10;2.63;;;;;;;;;;5081652;28;20045;-87
2021/08/03 09:39:37;;;;;;;4.97;2.83;;;;;;;;;;5081888;28;20055;-86
2021/08/03 09:42:06;;;;;;;7.53;2.80;;;;;;;;;;5076920;28;20120;-85
2021/08/03 09:44:36;;;;;;;4.75;2.95;;;;;;;;;;5084238;28;20053;-85
2021/08/03 09:47:03;;;;;;;5.35;2.65;;;;;;;;;;5082939;28;20410;-85
2021/08/03 09:49:39;;;;;;;6.45;2.80;;;;;;;;;;5082884;28;20047;-85
2021/08/03 09:52:08;;;;;;;4.70;2.50;;;;;;;;;;5083583;28;20132;-84
2021/08/03 09:54:36;;;;;;;4.30;2.63;;;;;;;;;;5067409;28;20045;-87
2021/08/03 09:57:04;;;;;;;5.28;2.85;;;;;;;;;;5062336;28;20077;-85
2021/08/03 09:59:37;;;;;;;5.03;2.78;;;;;;;;;;5060967;28;20044;-86
2021/08/03 10:02:04;;;;;;;5.90;2.70;;;;;;;;;;5059559;28;20045;-83
2021/08/03 10:04:32;;;;;;;5.00;2.60;;;;;;;;;;5059109;28;20084;-86
2021/08/03 10:06:59;;;;;;;6.90;3.25;;;;;;;;;;5058504;28;20053;-85
2021/08/03 10:09:26;;;;;;;5.38;2.88;;;;;;;;;;5057555;28;20049;-85
2021/08/03 10:11:56;;;;;;;6.22;2.60;;;;;;;;;;5057580;28;20143;-85
2021/08/03 10:14:26;;;;;;;4.85;2.70;;;;;;;;;;5058702;28;20044;-85
2021/08/03 10:16:54;;;;;;;;;;;;;;;;;;5057693;28;20044;-85
2021/08/03 10:19:23;;;;;;;5.90;2.80;;;;;;;;;;5058394;28;19964;-84
2021/08/03 10:22:00;;;;;;;4.72;2.55;;;;;;;;;;5058560;28;20152;-84
2021/08/03 10:24:31;;;;;;;6.32;2.95;;;;;;;;;;5061763;28;20409;-84
2021/08/03 10:27:10;;;;;;;4.60;2.55;;;;;;;;;;5060225;28;20052;-85
2021/08/03 10:29:47;;;;;;;5.30;2.80;;;;;;;;;;5061874;28;20045;-86
2021/08/03 10:32:42;;;;;;;4.50;2.50;;;;;;;;;;5059112;28;20049;-86
2021/08/03 10:35:17;;;;;;;6.20;3.47;;;;;;;;;;5060048;28;20049;-85
2021/08/03 10:38:08;;;;;;;4.45;2.53;;;;;;;;;;5060954;28;20044;-85
2021/08/03 10:41:16;;;;;;;5.63;3.00;;;;;;;;;;5061329;28;20117;-85
2021/08/03 10:43:55;;;;;;;6.30;3.38;;;;;;;;;;5059826;28;20045;-84
2021/08/03 10:46:49;;;;;;;7.43;4.18;;;;;;;;;;5059006;28;20045;-84
2021/08/03 10:49:55;;;;;;;6.45;2.80;;;;;;;;;;5066737;28;20041;-85
2021/08/03 10:52:52;;;;;;;5.97;3.08;;;;;;;;;;5055825;28;20106;-85
2021/08/03 10:55:39;;;;;;;5.20;3.60;;;;;;;;;;5055577;28;20076;-85
2021/08/03 10:58:23;;;;;;;6.47;3.72;;;;;;;;;;5057633;28;20098;-85
2021/08/03 11:00:52;;;;;;;6.15;3.70;;;;;;;;;;5058770;28;20406;-84
2021/08/03 11:03:41;;;;;;;9.52;3.20;;;;;;;;;;5040182;28;20052;-84
2021/08/03 11:06:42;;;;;;;6.60;3.60;;;;;;;;;;5039113;28;20045;-84
2021/08/03 11:09:34;;;;;;;5.07;3.30;;;;;;;;;;5043849;28;20045;-84
2021/08/03 11:12:41;;;;;;;6.47;3.10;;;;;;;;;;5040870;28;20049;-84
2021/08/03 11:15:48;;;;;;;6.05;3.28;;;;;;;;;;5063660;28;20051;-83
2021/08/03 11:18:15;;;;;;;4.70;2.67;;;;;;;;;;5056980;28;20504;-85
2021/08/03 11:21:12;;;;;;;5.97;3.05;;;;;;;;;;5058922;28;20049;-85
2021/08/03 11:24:04;;;;;;;5.15;2.70;;;;;;;;;;5057984;28;20048;-85
2021/08/03 11:26:34;;;;;;;6.28;3.03;;;;;;;;;;5060687;28;20056;-85
2021/08/03 11:29:07;;;;;;;6.00;3.20;;;;;;;;;;5058841;28;20055;-86
2021/08/03 11:31:55;;;;;;;7.07;3.75;;;;;;;;;;5060006;28;20075;-85
2021/08/03 11:34:25;;;;;;;6.65;3.78;;;;;;;;;;5056168;28;20041;-84
2021/08/03 11:37:14;;;;;;;5.22;3.03;;;;;;;;;;5054043;28;20045;-84
2021/08/03 11:39:45;;;;;;;5.20;3.00;;;;;;;;;;5056757;28;20368;-85
2021/08/03 11:42:13;;;;;;;10.57;4.97;;;;;;;;;;5069257;28;20045;-85
2021/08/03 11:44:43;;;;;;;5.43;3.42;;;;;;;;;;5069032;28;20045;-85
2021/08/03 11:47:12;;;;;;;4.68;2.50;;;;;;;;;;5069532;28;20043;-86
2021/08/03 11:49:46;;;;;;;5.22;2.95;;;;;;;;;;5071154;28;20077;-84
2021/08/03 11:52:18;;;;;;;5.15;2.53;;;;;;;;;;5070299;28;20041;-85
2021/08/03 11:54:49;;;;;;;4.45;2.58;;;;;;;;;;5070384;28;20048;-86
2021/08/03 11:57:31;;;;;;;5.30;2.55;;;;;;;;;;5070198;28;20056;-85
2021/08/03 12:00:05;;;;;;;4.78;2.75;;;;;;;;;;5066145;28;20067;-85
2021/08/03 12:02:32;;;;;;;6.20;4.45;;;;;;;;;;5047507;28;20856;-85
2021/08/03 12:05:18;;;;;;;5.20;2.90;;;;;;;;;;5047099;28;20049;-84
2021/08/03 12:07:52;;;;;;;4.18;2.60;;;;;;;;;;5044855;28;20053;-84
2021/08/03 12:10:23;;;;;;;5.22;2.53;;;;;;;;;;5036215;28;20049;-83
2021/08/03 12:12:50;;;;;;;6.38;3.20;;;;;;;;;;5039711;28;20049;-84
2021/08/03 12:15:19;;;;;;;4.38;2.40;;;;;;;;;;5050876;28;20037;-85
2021/08/03 12:17:47;;;;;;;4.80;2.47;;;;;;;;;;5054870;28;20105;-85
2021/08/03 12:20:29;;;;;;;7.07;2.85;;;;;;;;;;5039573;28;20072;-84
2021/08/03 12:23:07;;;;;;;4.20;2.40;;;;;;;;;;5038341;28;20056;-84
2021/08/03 12:25:45;;;;;;;4.47;2.40;;;;;;;;;;5046172;28;20060;-84
2021/08/03 12:28:12;;;;;;;3.95;2.22;;;;;;;;;;5057339;28;20044;-85
2021/08/03 12:30:40;;;;;;;4.65;2.25;;;;;;;;;;5056668;28;20057;-85
2021/08/03 12:33:08;;;;;;;3.85;2.45;;;;;;;;;;5059854;28;20049;-85
2021/08/03 12:35:39;;;;;;;4.95;2.65;;;;;;;;;;5059399;28;20116;-84
2021/08/03 12:38:16;;;;;;;4.85;2.60;;;;;;;;;;5059106;28;20064;-86
2021/08/03 12:40:45;;;;;;;4.07;2.00;;;;;;;;;;5045144;28;20041;-85
2021/08/03 12:43:11;;;;;;;3.50;2.22;;;;;;;;;;5037013;28;20055;-85
2021/08/03 12:45:41;;;;;;;3.88;2.10;;;;;;;;;;5036052;28;20056;-85
2021/08/03 12:48:10;;;;;;;3.53;2.03;;;;;;;;;;5035372;28;20049;-85
2021/08/03 12:50:49;;;;;;;3.40;2.00;;;;;;;;;;5037542;28;20400;-85
2021/08/03 12:53:26;;;;;;;4.57;2.42;;;;;;;;;;5035794;28;20045;-85
2021/08/03 12:55:56;;;;;;;4.05;2.33;;;;;;;;;;5035701;28;20099;-85
2021/08/03 12:58:35;;;;;;;4.25;2.40;;;;;;;;;;5037871;28;20042;-85
2021/08/03 13:01:12;;;;;;;3.80;2.28;;;;;;;;;;5040590;28;20128;-86
2021/08/03 13:03:39;;;;;;;4.85;2.15;;;;;;;;;;5058010;28;20045;-85
2021/08/03 13:06:07;;;;;;;4.20;2.03;;;;;;;;;;5056670;28;20140;-86
2021/08/03 13:08:33;;;;;;;4.10;2.10;;;;;;;;;;5057315;28;20045;-86
2021/08/03 13:11:05;;;;;;;3.67;1.70;;;;;;;;;;5055994;28;20045;-85
2021/08/03 13:13:32;;;;;;;3.67;2.00;;;;;;;;;;5076464;28;20110;-85
2021/08/03 13:15:59;;;;;;;5.28;2.08;;;;;;;;;;5077522;28;20114;-85
2021/08/03 13:18:26;;;;;;;3.50;1.75;;;;;;;;;;5079887;28;20048;-84
2021/08/03 13:20:52;;;;;;;3.35;1.85;;;;;;;;;;5079778;28;20044;-85
2021/08/03 13:23:20;;;;;;;3.65;1.90;;;;;;;;;;5081052;28;20052;-85
2021/08/03 13:25:47;;;;;;;4.95;2.25;;;;;;;;;;5081039;28;20048;-85
2021/08/03 13:28:15;;;;;;;3.28;1.90;;;;;;;;;;5082503;28;20053;-85
2021/08/03 13:30:42;;;;;;;3.63;2.33;;;;;;;;;;5084013;28;20049;-85
2021/08/03 13:33:09;;;;;;;4.15;1.98;;;;;;;;;;5084827;28;20048;-85
2021/08/03 13:35:36;;;;;;;3.83;1.95;;;;;;;;;;5081740;28;20041;-85
2021/08/03 13:38:05;;;;;;;5.25;1.83;;;;;;;;;;5082316;28;20040;-85
2021/08/03 13:40:32;;;;;;;4.45;1.85;;;;;;;;;;5077664;28;20118;-85
2021/08/03 13:42:58;;;;;;;3.65;2.08;;;;;;;;;;5075635;28;20056;-85
2021/08/03 13:45:27;;;;;;;3.78;2.00;;;;;;;;;;5078593;28;20048;-85
2021/08/03 13:47:54;;;;;;;3.50;1.88;;;;;;;;;;5079714;28;20102;-85
2021/08/03 13:50:21;;;;;;;4.90;2.13;;;;;;;;;;5079212;28;20063;-84
2021/08/03 13:52:48;;;;;;;3.78;1.83;;;;;;;;;;5076782;28;20055;-85
2021/08/03 13:55:14;;;;;;;4.35;1.80;;;;;;;;;;5082592;28;20049;-85
2021/08/03 13:57:42;;;;;;;4.20;1.80;;;;;;;;;;5086681;28;20040;-85
2021/08/03 14:00:09;;;;;;;5.45;2.35;;;;;;;;;;5087972;28;20064;-85
2021/08/03 14:02:38;;;;;;;3.85;2.13;;;;;;;;;;5080178;22;20051;-83
2021/08/03 14:05:07;;;;;;;3.60;2.00;;;;;;;;;;5056802;28;20106;-82
2021/08/03 14:07:34;;;;;;;3.88;2.13;;;;;;;;;;5058065;28;20072;-82
2021/08/03 14:10:01;;;;;;;3.78;1.98;;;;;;;;;;5056416;28;20477;-83
2021/08/03 14:12:27;;;;;;;4.20;2.17;;;;;;;;;;5053716;28;20057;-81
2021/08/03 14:14:54;;;;;;;5.00;2.20;;;;;;;;;;5054243;28;20045;-81
2021/08/03 14:17:21;;;;;;;3.90;2.28;;;;;;;;;;5054288;28;20045;-82
2021/08/03 14:19:49;;;;;;;3.53;2.05;;;;;;;;;;5054951;28;20298;-82
2021/08/03 14:22:16;;;;;;;5.07;2.45;;;;;;;;;;5054249;28;20083;-81
2021/08/03 14:24:42;;;;;;;3.65;2.40;;;;;;;;;;5055132;28;20456;-81
2021/08/03 14:27:09;;;;;;;4.55;2.28;;;;;;;;;;5054395;28;20130;-83
2021/08/03 14:29:37;;;;;;;11.65;2.80;;;;;;;;;;5054125;28;20053;-82
2021/08/03 14:32:05;;;;;;;4.32;2.20;;;;;;;;;;5053356;28;20045;-83
2021/08/03 14:34:32;;;;;;;5.25;2.03;;;;;;;;;;5053032;28;20522;-84
2021/08/03 14:37:01;;;;;;;5.80;2.38;;;;;;;;;;5054116;28;20045;-83
2021/08/03 14:39:27;;;;;;;3.88;2.55;;;;;;;;;;5054718;28;20045;-82
2021/08/03 14:41:54;;;;;;;3.38;2.03;;;;;;;;;;5054177;28;20103;-82
2021/08/03 14:44:21;;;;;;;4.45;2.20;;;;;;;;;;5053383;28;20046;-83
2021/08/03 14:46:48;;;;;;;3.92;2.45;;;;;;;;;;5051954;28;20053;-83
2021/08/03 14:49:15;;;;;;;4.35;2.35;;;;;;;;;;5053624;28;20103;-82
2021/08/03 14:51:42;;;;;;;4.47;2.22;;;;;;;;;;5053631;28;20049;-83
2021/08/03 14:54:11;;;;;;;4.95;2.33;;;;;;;;;;5052834;28;20072;-82
2021/08/03 14:56:38;;;;;;;6.00;3.05;;;;;;;;;;5052469;28;20045;-83
2021/08/03 14:59:05;;;;;;;4.45;2.55;;;;;;;;;;5052298;28;20316;-82
2021/08/03 15:01:32;;;;;;;4.15;2.33;;;;;;;;;;5051241;28;20045;-83
2021/08/03 15:03:59;;;;;;;7.28;2.58;;;;;;;;;;5056887;28;20087;-81
2021/08/03 15:06:26;;;;;;;5.43;2.40;;;;;;;;;;5062013;28;20064;-81
2021/08/03 15:08:54;;;;;;;4.78;2.85;;;;;;;;;;5070541;28;20032;-81